Time;durP1;ratioP1;P1;durP2;ratioP2;P2;SDS_P1;SDS_P2;PMS_P1;PMS_P2;Temp;Humidity;BMP_temperature;BMP_pressure;BME280_temperature;BME280_humidity;BME280_pressure;Samples;Min_cycle;Max_cycle;Signal;HPM_P1;HPM_P2
2022/01/05 00:01:43;;;;;;;;;;;4.20;99.90;;;;;;5036987;28;19935;-86
2022/01/05 00:04:10;;;;;;;;;;;4.20;99.90;;;;;;5036987;28;19929;-86
2022/01/05 00:06:38;;;;;;;;;;;4.20;99.90;;;;;;5037412;28;19932;-86
2022/01/05 00:09:12;;;;;;;;;;;4.80;99.90;;;;;;5037132;28;19925;-86
2022/01/05 00:11:42;;;;;;;;;;;4.30;99.90;;;;;;5036906;28;19962;-86
2022/01/05 00:14:09;;;;;;;;;;;4.40;99.90;;;;;;5037921;28;19921;-86
2022/01/05 00:16:47;;;;;;;;;;;4.80;99.90;;;;;;5037612;28;19928;-87
2022/01/05 00:19:20;;;;;;;;;;;4.40;99.90;;;;;;5036841;28;19964;-86
2022/01/05 00:21:54;;;;;;;;;;;4.00;99.90;;;;;;5037412;28;19959;-87
2022/01/05 00:24:24;;;;;;;;;;;4.40;99.90;;;;;;5037164;28;19921;-87
2022/01/05 00:26:56;;;;;;;;;;;4.50;99.90;;;;;;5037384;28;20386;-87
2022/01/05 00:29:23;;;;;;;;;;;4.40;99.90;;;;;;5037161;28;19928;-87
2022/01/05 00:31:50;;;;;;;;;;;5.10;99.90;;;;;;5037102;28;19921;-87
2022/01/05 00:34:17;;;;;;;;;;;4.70;99.90;;;;;;5036404;28;19983;-87
2022/01/05 00:36:43;;;;;;;;;;;4.30;99.90;;;;;;5037414;28;19925;-87
2022/01/05 00:39:12;;;;;;;;;;;4.40;99.90;;;;;;5036703;28;19944;-87
2022/01/05 00:41:38;;;;;;;;;;;4.50;99.90;;;;;;5036613;28;19924;-87
2022/01/05 00:44:05;;;;;;;;;;;4.10;99.90;;;;;;5036396;28;19925;-87
2022/01/05 00:46:36;;;;;;;;;;;4.10;99.90;;;;;;5036424;28;19928;-86
2022/01/05 00:49:02;;;;;;;;;;;4.20;99.90;;;;;;5036237;28;20378;-87
2022/01/05 00:51:29;;;;;;;;;;;4.50;99.90;;;;;;5036724;28;19925;-86
2022/01/05 00:53:56;;;;;;;;;;;4.70;99.90;;;;;;5035786;28;19928;-87
2022/01/05 00:56:24;;;;;;;;;;;2.10;99.90;;;;;;5036801;28;19928;-87
2022/01/05 00:58:51;;;;;;;;;;;4.50;99.90;;;;;;5036296;28;19921;-87
2022/01/05 01:01:21;;;;;;;;;;;5.80;99.90;;;;;;5036348;28;19921;-87
2022/01/05 01:03:47;;;;;;;;;;;5.00;99.90;;;;;;5036011;28;19975;-86
2022/01/05 01:06:14;;;;;;;;;;;4.70;99.90;;;;;;5036206;28;19921;-87
2022/01/05 01:08:41;;;;;;;;;;;4.50;99.90;;;;;;5036152;28;19943;-86
2022/01/05 01:11:08;;;;;;;;;;;4.80;99.90;;;;;;5035312;28;19975;-86
2022/01/05 01:13:36;;;;;;;;;;;4.80;99.90;;;;;;5035935;28;19956;-86
2022/01/05 01:16:03;;;;;;;;;;;4.60;99.90;;;;;;5036226;28;19921;-87
2022/01/05 01:18:30;;;;;;;;;;;4.50;99.90;;;;;;5036709;28;20417;-85
2022/01/05 01:20:57;;;;;;;;;;;4.50;99.90;;;;;;5037516;28;20361;-87
2022/01/05 01:23:24;;;;;;;;;;;4.40;99.90;;;;;;5037146;28;19928;-86
2022/01/05 01:25:51;;;;;;;;;;;4.40;99.90;;;;;;5037264;28;20007;-87
2022/01/05 01:28:19;;;;;;;;;;;4.10;99.90;;;;;;5035317;28;19974;-87
2022/01/05 01:30:47;;;;;;;;;;;4.20;99.90;;;;;;5036020;28;19971;-87
2022/01/05 01:33:14;;;;;;;;;;;4.30;99.90;;;;;;5036080;28;19998;-86
2022/01/05 01:35:41;;;;;;;;;;;4.30;99.90;;;;;;5035945;28;19943;-87
2022/01/05 01:38:07;;;;;;;;;;;4.60;99.90;;;;;;5035639;28;19967;-87
2022/01/05 01:40:34;;;;;;;;;;;4.20;99.90;;;;;;5035386;28;19921;-87
2022/01/05 01:43:01;;;;;;;;;;;4.20;99.90;;;;;;5035343;28;19921;-86
2022/01/05 01:45:28;;;;;;;;;;;4.00;99.90;;;;;;5035757;28;19972;-87
2022/01/05 01:47:56;;;;;;;;;;;4.70;99.90;;;;;;5034547;28;20023;-87
2022/01/05 01:50:23;;;;;;;;;;;4.20;99.90;;;;;;5035851;28;19921;-86
2022/01/05 01:52:49;;;;;;;;;;;4.30;99.90;;;;;;5035359;28;19971;-87
2022/01/05 01:55:16;;;;;;;;;;;3.00;99.90;;;;;;5035611;28;19925;-87
2022/01/05 01:57:45;;;;;;;;;;;4.30;99.90;;;;;;5034610;28;20318;-87
2022/01/05 02:00:13;;;;;;;;;;;4.00;99.90;;;;;;5035526;28;19928;-86
2022/01/05 02:02:40;;;;;;;;;;;4.30;99.90;;;;;;5034797;28;19921;-87
2022/01/05 02:05:09;;;;;;;;;;;4.30;99.90;;;;;;5035408;28;20359;-86
2022/01/05 02:07:37;;;;;;;;;;;4.50;99.90;;;;;;5034458;28;19921;-87
2022/01/05 02:10:04;;;;;;;;;;;4.40;99.90;;;;;;5035101;28;19927;-86
2022/01/05 02:12:44;;;;;;;;;;;4.60;99.90;;;;;;5034460;28;20343;-87
2022/01/05 02:15:18;;;;;;;;;;;4.90;99.90;;;;;;5028338;28;19921;-86
2022/01/05 02:20:54;;;;;;;;;;;5.00;99.90;;;;;;5025171;28;19999;-86
2022/01/05 02:23:34;;;;;;;;;;;5.50;99.90;;;;;;5034206;28;20027;-86
2022/01/05 02:26:07;;;;;;;;;;;4.50;99.90;;;;;;5034814;28;19927;-86
2022/01/05 02:29:11;;;;;;;;;;;6.10;99.90;;;;;;5034187;28;19921;-87
2022/01/05 02:32:08;;;;;;;;;;;4.90;99.90;;;;;;4973539;28;20004;-86
2022/01/05 02:34:49;;;;;;;;;;;6.40;99.90;;;;;;5015002;28;19956;-86
2022/01/05 02:37:28;;;;;;;;;;;5.10;99.90;;;;;;5017861;28;19944;-87
2022/01/05 02:39:59;;;;;;;;;;;5.00;99.90;;;;;;5034250;28;19921;-87
2022/01/05 02:42:41;;;;;;;;;;;5.40;99.90;;;;;;5033003;28;19928;-86
2022/01/05 02:45:12;;;;;;;;;;;4.80;99.90;;;;;;5032207;28;20359;-86
2022/01/05 02:47:46;;;;;;;;;;;5.10;99.90;;;;;;5034074;28;19921;-87
2022/01/05 02:50:13;;;;;;;;;;;4.90;99.90;;;;;;5034694;28;19968;-86
2022/01/05 02:52:44;;;;;;;;;;;4.90;99.90;;;;;;5034390;28;19927;-87
2022/01/05 02:55:12;;;;;;;;;;;3.50;99.90;;;;;;5034095;28;20291;-87
2022/01/05 02:57:56;;;;;;;;;;;5.20;99.90;;;;;;5034360;28;19928;-86
2022/01/05 03:00:26;;;;;;;;;;;5.20;99.90;;;;;;5033687;28;20052;-87
2022/01/05 03:02:53;;;;;;;;;;;5.30;99.90;;;;;;5034793;28;19944;-87
2022/01/05 03:05:20;;;;;;;;;;;4.90;99.90;;;;;;5034643;28;19921;-86
2022/01/05 03:07:53;;;;;;;;;;;5.00;99.90;;;;;;5033918;28;20349;-86
2022/01/05 03:10:25;;;;;;;;;;;4.90;99.90;;;;;;5034118;28;19959;-87
2022/01/05 03:12:57;;;;;;;;;;;4.90;99.90;;;;;;5034315;28;19950;-87
2022/01/05 03:15:28;;;;;;;;;;;4.60;99.90;;;;;;5034264;28;19944;-85
2022/01/05 03:17:55;;;;;;;;;;;5.20;99.90;;;;;;5029922;28;19956;-86
2022/01/05 03:20:24;;;;;;;;;;;5.00;99.90;;;;;;5033590;28;19928;-86
2022/01/05 03:22:59;;;;;;;;;;;4.80;99.90;;;;;;5035228;28;20794;-87
2022/01/05 03:25:31;;;;;;;;;;;4.60;99.90;;;;;;5037649;28;20004;-86
2022/01/05 03:27:59;;;;;;;;;;;4.60;99.90;;;;;;5038575;28;19920;-87
2022/01/05 03:30:33;;;;;;;;;;;4.90;99.90;;;;;;5037936;28;19957;-86
2022/01/05 03:33:11;;;;;;;;;;;3.70;99.90;;;;;;5038186;28;19921;-86
2022/01/05 03:35:40;;;;;;;;;;;6.80;99.90;;;;;;5037954;28;20362;-86
2022/01/05 03:38:08;;;;;;;;;;;4.60;99.90;;;;;;5037728;28;20444;-86
2022/01/05 03:40:35;;;;;;;;;;;4.30;99.90;;;;;;5037186;28;19939;-87
2022/01/05 03:43:03;;;;;;;;;;;4.30;99.90;;;;;;5038253;28;19921;-87
2022/01/05 03:45:30;;;;;;;;;;;4.60;99.90;;;;;;5037403;28;19928;-87
2022/01/05 03:47:57;;;;;;;;;;;3.80;99.90;;;;;;5037542;28;19921;-86
2022/01/05 03:50:23;;;;;;;;;;;4.30;99.90;;;;;;5037568;28;19921;-86
2022/01/05 03:52:50;;;;;;;;;;;4.40;99.90;;;;;;5037840;28;19999;-85
2022/01/05 03:55:18;;;;;;;;;;;4.30;99.90;;;;;;5037256;28;19929;-87
2022/01/05 03:57:45;;;;;;;;;;;4.30;99.90;;;;;;5037694;28;20287;-87
2022/01/05 04:00:13;;;;;;;;;;;4.30;99.90;;;;;;5037500;28;20342;-87
2022/01/05 04:02:39;;;;;;;;;;;3.70;99.90;;;;;;5037591;28;20011;-87
2022/01/05 04:05:07;;;;;;;;;;;4.60;99.90;;;;;;5037277;28;19951;-87
2022/01/05 04:07:33;;;;;;;;;;;4.30;99.90;;;;;;5037264;28;19967;-87
2022/01/05 04:10:00;;;;;;;;;;;4.40;99.90;;;;;;5037303;28;19921;-87
2022/01/05 04:12:30;;;;;;;;;;;4.40;99.90;;;;;;5037318;28;20437;-87
2022/01/05 04:15:00;;;;;;;;;;;4.40;99.90;;;;;;5037265;28;19999;-87
2022/01/05 04:17:27;;;;;;;;;;;4.40;99.90;;;;;;5037295;28;20464;-86
2022/01/05 04:19:53;;;;;;;;;;;4.50;99.90;;;;;;5037112;28;19975;-87
2022/01/05 04:22:21;;;;;;;;;;;4.80;99.90;;;;;;5037639;28;19921;-87
2022/01/05 04:24:47;;;;;;;;;;;4.40;99.90;;;;;;5036504;28;19925;-86
2022/01/05 04:27:15;;;;;;;;;;;4.40;99.90;;;;;;5036014;28;20389;-86
2022/01/05 04:29:43;;;;;;;;;;;4.40;99.90;;;;;;5036608;28;19928;-87
2022/01/05 04:32:10;;;;;;;;;;;3.60;99.90;;;;;;5037048;28;19921;-86
2022/01/05 04:34:37;;;;;;;;;;;4.40;99.90;;;;;;5036523;28;19925;-87
2022/01/05 04:37:04;;;;;;;;;;;4.50;99.90;;;;;;5036131;28;20445;-86
2022/01/05 04:39:31;;;;;;;;;;;4.50;99.90;;;;;;5036243;28;19921;-86
2022/01/05 04:41:58;;;;;;;;;;;4.50;99.90;;;;;;5037071;28;19921;-86
2022/01/05 04:44:25;;;;;;;;;;;4.50;99.90;;;;;;5036078;28;19925;-86
2022/01/05 04:46:53;;;;;;;;;;;4.50;99.90;;;;;;5034137;28;19927;-86
2022/01/05 04:49:21;;;;;;;;;;;4.50;99.90;;;;;;5036272;28;19928;-86
2022/01/05 04:51:48;;;;;;;;;;;4.50;99.90;;;;;;5036610;28;20350;-86
2022/01/05 04:54:18;;;;;;;;;;;4.60;99.90;;;;;;5036216;28;19921;-86
2022/01/05 04:56:44;;;;;;;;;;;4.50;99.90;;;;;;5023355;28;20363;-86
2022/01/05 04:59:11;;;;;;;;;;;4.70;99.90;;;;;;5036339;28;19921;-85
2022/01/05 05:01:38;;;;;;;;;;;5.10;99.90;;;;;;5036772;28;20287;-86
2022/01/05 05:04:07;;;;;;;;;;;4.50;99.90;;;;;;5035931;28;19921;-86
2022/01/05 05:06:34;;;;;;;;;;;4.60;99.90;;;;;;5035643;28;19921;-86
2022/01/05 05:09:01;;;;;;;;;;;4.40;99.90;;;;;;5036131;28;19921;-86
2022/01/05 05:11:28;;;;;;;;;;;4.80;99.90;;;;;;5035905;28;19925;-87
2022/01/05 05:13:55;;;;;;;;;;;4.30;99.90;;;;;;5035919;28;19952;-86
2022/01/05 05:16:21;;;;;;;;;;;4.20;99.90;;;;;;5035716;28;19925;-86
2022/01/05 05:18:48;;;;;;;;;;;4.20;99.90;;;;;;5036021;28;19921;-87
2022/01/05 05:21:16;;;;;;;;;;;4.10;99.90;;;;;;5035764;28;20326;-87
2022/01/05 05:23:43;;;;;;;;;;;4.90;99.90;;;;;;5035475;28;19928;-87
2022/01/05 05:26:13;;;;;;;;;;;4.10;99.90;;;;;;5037668;28;19974;-87
2022/01/05 05:28:40;;;;;;;;;;;4.20;99.90;;;;;;5037140;28;19924;-86
2022/01/05 05:31:07;;;;;;;;;;;3.90;99.90;;;;;;5037548;28;19955;-86
2022/01/05 05:33:34;;;;;;;;;;;4.10;99.90;;;;;;5035841;28;19974;-87
2022/01/05 05:36:02;;;;;;;;;;;4.20;99.90;;;;;;5035993;28;20015;-86
2022/01/05 05:38:30;;;;;;;;;;;4.20;99.90;;;;;;5035515;28;19928;-86
2022/01/05 05:40:57;;;;;;;;;;;4.10;99.90;;;;;;5035405;28;20007;-86
2022/01/05 05:43:24;;;;;;;;;;;4.30;99.90;;;;;;5034995;28;19924;-86
2022/01/05 05:45:51;;;;;;;;;;;3.90;99.90;;;;;;5035325;28;20334;-86
2022/01/05 05:48:18;;;;;;;;;;;4.30;99.90;;;;;;5034517;28;19967;-86
2022/01/05 05:50:44;;;;;;;;;;;4.40;99.90;;;;;;5035508;28;19998;-86
2022/01/05 05:53:11;;;;;;;;;;;4.40;99.90;;;;;;5034685;28;20314;-85
2022/01/05 05:55:40;;;;;;;;;;;4.30;99.90;;;;;;5034956;28;19921;-87
2022/01/05 05:58:07;;;;;;;;;;;4.30;99.90;;;;;;5035415;28;19928;-87
2022/01/05 06:00:33;;;;;;;;;;;4.30;99.90;;;;;;5035032;28;19921;-87
2022/01/05 06:03:01;;;;;;;;;;;4.30;99.90;;;;;;5035209;28;19929;-87
2022/01/05 06:05:28;;;;;;;;;;;4.30;99.90;;;;;;5034739;28;19925;-87
2022/01/05 06:07:54;;;;;;;;;;;4.10;99.90;;;;;;5034675;28;19920;-87
2022/01/05 06:10:21;;;;;;;;;;;4.20;99.90;;;;;;5034711;28;19964;-86
2022/01/05 06:12:49;;;;;;;;;;;4.20;99.90;;;;;;5034799;28;19925;-87
2022/01/05 06:15:16;;;;;;;;;;;4.10;99.90;;;;;;5034589;28;20398;-87
2022/01/05 06:17:43;;;;;;;;;;;4.10;99.90;;;;;;5034319;28;19922;-86
2022/01/05 06:20:11;;;;;;;;;;;4.10;99.90;;;;;;5034614;28;19921;-87
2022/01/05 06:22:38;;;;;;;;;;;4.00;99.90;;;;;;5034461;28;19936;-87
2022/01/05 06:25:05;;;;;;;;;;;3.90;99.90;;;;;;5034094;28;19921;-86
2022/01/05 06:27:32;;;;;;;;;;;3.90;99.90;;;;;;5033761;28;19925;-87
2022/01/05 06:30:04;;;;;;;;;;;4.00;99.90;;;;;;5034386;28;20361;-87
2022/01/05 06:32:31;;;;;;;;;;;3.80;99.90;;;;;;5033897;28;19928;-86
2022/01/05 06:34:58;;;;;;;;;;;3.80;99.90;;;;;;5033860;28;19925;-85
2022/01/05 06:37:24;;;;;;;;;;;4.10;99.90;;;;;;5034550;28;19921;-86
2022/01/05 06:39:51;;;;;;;;;;;3.90;99.90;;;;;;5034338;28;19925;-86
2022/01/05 06:42:18;;;;;;;;;;;3.90;99.90;;;;;;5033889;28;19921;-86
2022/01/05 06:44:45;;;;;;;;;;;4.00;99.90;;;;;;5034737;28;19928;-87
2022/01/05 06:47:13;;;;;;;;;;;4.00;99.90;;;;;;5034299;28;20062;-86
2022/01/05 06:49:40;;;;;;;;;;;3.90;99.90;;;;;;5033730;28;20264;-85
2022/01/05 06:52:08;;;;;;;;;;;3.90;99.90;;;;;;5034268;28;19933;-86
2022/01/05 06:54:34;;;;;;;;;;;3.80;99.90;;;;;;5034131;28;19920;-86
2022/01/05 06:57:01;;;;;;;;;;;5.30;99.90;;;;;;5034648;28;19921;-87
2022/01/05 06:59:31;;;;;;;;;;;3.70;99.90;;;;;;5033833;28;19928;-86
2022/01/05 07:01:58;;;;;;;;;;;3.70;99.90;;;;;;5033224;28;19967;-86
2022/01/05 07:04:26;;;;;;;;;;;3.60;99.90;;;;;;5032713;28;19921;-86
2022/01/05 07:06:53;;;;;;;;;;;3.80;99.90;;;;;;5034187;28;19932;-86
2022/01/05 07:09:20;;;;;;;;;;;3.70;99.90;;;;;;5034070;28;19921;-86
2022/01/05 07:11:46;;;;;;;;;;;3.70;99.90;;;;;;5034262;28;19921;-86
2022/01/05 07:14:13;;;;;;;;;;;3.70;99.90;;;;;;5034303;28;19921;-86
2022/01/05 07:16:40;;;;;;;;;;;3.80;99.90;;;;;;5034672;28;19988;-86
2022/01/05 07:19:07;;;;;;;;;;;3.90;99.90;;;;;;5034181;28;19967;-87
2022/01/05 07:21:35;;;;;;;;;;;3.90;99.90;;;;;;5034399;28;19975;-87
2022/01/05 07:24:02;;;;;;;;;;;4.00;99.90;;;;;;5034025;28;19925;-86
2022/01/05 07:26:29;;;;;;;;;;;3.80;99.90;;;;;;5034262;28;19925;-86
2022/01/05 07:28:56;;;;;;;;;;;3.70;99.90;;;;;;5035959;28;19921;-86
2022/01/05 07:31:23;;;;;;;;;;;3.80;99.90;;;;;;5044980;28;19921;-86
2022/01/05 07:33:50;;;;;;;;;;;4.00;99.90;;;;;;5039549;28;19956;-86
2022/01/05 07:36:17;;;;;;;;;;;6.10;99.90;;;;;;5039972;28;19921;-87
2022/01/05 07:38:45;;;;;;;;;;;4.00;99.90;;;;;;5034750;28;19982;-87
2022/01/05 07:41:12;;;;;;;;;;;4.30;99.90;;;;;;5033866;28;19965;-87
2022/01/05 07:43:38;;;;;;;;;;;3.80;99.90;;;;;;5033673;28;20359;-86
2022/01/05 07:46:05;;;;;;;;;;;3.80;99.90;;;;;;5033474;28;19922;-86
2022/01/05 07:48:32;;;;;;;;;;;3.80;99.90;;;;;;5033571;28;19921;-87
2022/01/05 07:50:59;;;;;;;;;;;3.80;99.90;;;;;;5033391;28;20287;-88
2022/01/05 07:53:26;;;;;;;;;;;3.70;99.90;;;;;;5035061;28;20563;-87
2022/01/05 07:55:56;;;;;;;;;;;3.70;99.90;;;;;;5034198;28;19928;-87
2022/01/05 07:58:23;;;;;;;;;;;3.60;99.90;;;;;;5034256;28;20367;-87
2022/01/05 08:00:50;;;;;;;;;;;3.60;99.90;;;;;;5033999;28;19967;-86
2022/01/05 08:03:17;;;;;;;;;;;3.70;99.90;;;;;;5033441;28;19925;-87
2022/01/05 08:05:44;;;;;;;;;;;3.50;99.90;;;;;;5034044;28;19921;-88
2022/01/05 08:08:11;;;;;;;;;;;4.10;99.90;;;;;;5033163;28;20275;-87
2022/01/05 08:10:38;;;;;;;;;;;4.10;99.90;;;;;;5035017;28;19967;-87
2022/01/05 08:13:06;;;;;;;;;;;3.80;99.90;;;;;;5037866;28;20367;-87
2022/01/05 08:15:32;;;;;;;;;;;3.90;99.90;;;;;;5036771;28;20307;-87
2022/01/05 08:17:59;;;;;;;;;;;3.70;99.90;;;;;;5040708;28;19925;-87
2022/01/05 08:20:26;;;;;;;;;;;5.60;99.90;;;;;;5037352;28;19967;-87
2022/01/05 08:22:53;;;;;;;;;;;4.00;99.90;;;;;;5036921;28;19921;-86
2022/01/05 08:25:24;;;;;;;;;;;5.90;99.90;;;;;;5037192;28;19921;-87
2022/01/05 08:27:50;;;;;;;;;;;4.20;99.90;;;;;;5036899;28;19921;-86
2022/01/05 08:30:19;;;;;;;;;;;4.30;99.90;;;;;;5037199;28;19940;-88
2022/01/05 08:32:48;;;;;;;;;;;4.30;99.90;;;;;;5037883;28;19971;-86
2022/01/05 08:35:16;;;;;;;;;;;4.50;99.90;;;;;;5037391;28;19920;-87
2022/01/05 08:37:44;;;;;;;;;;;4.30;99.90;;;;;;5036813;28;20228;-88
2022/01/05 08:40:11;;;;;;;;;;;4.40;99.90;;;;;;5036260;28;19997;-87
2022/01/05 08:42:38;;;;;;;;;;;4.40;99.90;;;;;;5037196;28;19920;-87
2022/01/05 08:45:06;;;;;;;;;;;4.40;99.90;;;;;;5036143;28;19944;-85
2022/01/05 08:47:34;;;;;;;;;;;4.30;99.90;;;;;;5036435;28;20016;-86
2022/01/05 08:50:01;;;;;;;;;;;4.20;99.90;;;;;;5036024;28;19927;-86
2022/01/05 08:52:28;;;;;;;;;;;4.40;99.90;;;;;;5036720;28;19927;-86
2022/01/05 08:54:55;;;;;;;;;;;4.40;99.90;;;;;;5036321;28;19920;-86
2022/01/05 08:57:22;;;;;;;;;;;4.20;99.90;;;;;;5035940;28;19921;-85
2022/01/05 08:59:51;;;;;;;;;;;4.10;99.90;;;;;;5040165;28;19960;-86
2022/01/05 09:02:18;;;;;;;;;;;4.50;99.90;;;;;;5036381;28;19929;-90
2022/01/05 09:04:51;;;;;;;;;;;4.20;99.90;;;;;;5038408;28;19920;-87
2022/01/05 09:07:18;;;;;;;;;;;4.30;99.90;;;;;;5038561;28;20019;-89
2022/01/05 09:09:45;;;;;;;;;;;4.60;99.90;;;;;;5037301;28;19921;-86
2022/01/05 09:12:12;;;;;;;;;;;5.00;99.90;;;;;;5039470;28;19972;-88
2022/01/05 09:14:41;;;;;;;;;;;4.30;99.90;;;;;;5036314;28;19921;-87
2022/01/05 09:17:09;;;;;;;;;;;4.40;99.90;;;;;;5038925;28;19928;-88
2022/01/05 09:19:36;;;;;;;;;;;5.10;99.90;;;;;;5035409;28;19921;-90
2022/01/05 09:22:05;;;;;;;;;;;4.40;99.90;;;;;;5033797;28;19925;-87
2022/01/05 09:24:32;;;;;;;;;;;4.40;99.90;;;;;;5034465;28;19932;-87
2022/01/05 09:27:03;;;;;;;;;;;4.50;99.90;;;;;;5035175;28;19920;-88
2022/01/05 09:29:30;;;;;;;;;;;4.40;99.90;;;;;;5041881;28;19925;-88
2022/01/05 09:31:57;;;;;;;;;;;4.70;99.90;;;;;;5042080;28;19929;-87
2022/01/05 09:34:24;;;;;;;;;;;5.00;99.90;;;;;;5043564;28;20008;-87
2022/01/05 09:36:58;;;;;;;;;;;5.00;99.90;;;;;;5040169;28;19925;-89
2022/01/05 09:42:11;;;;;;;;;;;4.50;99.90;;;;;;5034830;28;19948;-87
2022/01/05 09:44:41;;;;;;;;;;;4.70;99.90;;;;;;5035389;28;19921;-88
2022/01/05 09:47:33;;;;;;;;;;;4.70;99.90;;;;;;5035097;28;19921;-89
2022/01/05 09:50:03;;;;;;;;;;;4.60;99.90;;;;;;5031984;28;19965;-88
2022/01/05 09:52:31;;;;;;;;;;;5.00;99.90;;;;;;5031640;28;19932;-88
2022/01/05 09:54:59;;;;;;;;;;;4.60;99.90;;;;;;5029070;28;20038;-88
2022/01/05 09:57:27;;;;;;;;;;;4.80;99.90;;;;;;5031555;28;19927;-88
2022/01/05 09:59:53;;;;;;;;;;;2.90;99.90;;;;;;5028084;28;19921;-87
2022/01/05 10:02:20;;;;;;;;;;;4.90;99.90;;;;;;5026534;28;20145;-87
2022/01/05 10:04:47;;;;;;;;;;;3.10;99.90;;;;;;5025175;28;19976;-86
2022/01/05 10:07:15;;;;;;;;;;;4.40;99.90;;;;;;5030442;28;19921;-87
2022/01/05 10:09:42;;;;;;;;;;;4.70;99.90;;;;;;5032695;28;20394;-87
2022/01/05 10:12:12;;;;;;;;;;;5.20;99.90;;;;;;5034294;28;19921;-88
2022/01/05 10:14:40;;;;;;;;;;;4.80;99.90;;;;;;5033570;28;19921;-87
2022/01/05 10:17:07;;;;;;;;;;;5.00;99.90;;;;;;5035536;28;19925;-87
2022/01/05 10:19:35;;;;;;;;;;;5.60;99.90;;;;;;5021324;28;19925;-85
2022/01/05 10:22:03;;;;;;;;;;;4.80;99.90;;;;;;5022330;28;20368;-88
2022/01/05 10:24:45;;;;;;;;;;;5.00;99.90;;;;;;5024404;28;20010;-88
2022/01/05 10:27:17;;;;;;;;;;;4.90;99.90;;;;;;5018828;28;19936;-87
2022/01/05 10:29:51;;;;;;;;;;;4.70;99.90;;;;;;5021813;28;19975;-88
2022/01/05 10:32:18;;;;;;;;;;;5.00;99.90;;;;;;5023147;28;20465;-87
2022/01/05 10:34:59;;;;;;;;;;;5.00;99.90;;;;;;5026268;28;19928;-88
2022/01/05 10:37:26;;;;;;;;;;;5.10;99.90;;;;;;5021865;28;20326;-88
2022/01/05 10:40:04;;;;;;;;;;;5.10;99.90;;;;;;5021420;28;19948;-85
2022/01/05 10:42:33;;;;;;;;;;;5.80;99.90;;;;;;5019956;28;20327;-89
2022/01/05 10:44:59;;;;;;;;;;;5.20;99.90;;;;;;5019572;28;19929;-88
2022/01/05 10:47:27;;;;;;;;;;;5.20;99.90;;;;;;5022033;28;19932;-88
2022/01/05 10:49:54;;;;;;;;;;;5.40;99.90;;;;;;5027040;28;19925;-87
2022/01/05 10:52:22;;;;;;;;;;;5.60;99.90;;;;;;5018846;28;20012;-88
2022/01/05 10:54:49;;;;;;;;;;;5.80;99.90;;;;;;5021261;28;19975;-87
2022/01/05 10:57:16;;;;;;;;;;;5.40;99.90;;;;;;5023816;28;20264;-89
2022/01/05 10:59:45;;;;;;;;;;;7.10;99.90;;;;;;5020535;28;19929;-87
2022/01/05 11:02:22;;;;;;;;;;;5.50;99.90;;;;;;5021668;28;19930;-87
2022/01/05 11:04:49;;;;;;;;;;;5.50;99.90;;;;;;5021161;28;19921;-89
2022/01/05 11:07:31;;;;;;;;;;;5.60;99.90;;;;;;5028402;28;19921;-92
2022/01/05 11:09:59;;;;;;;;;;;5.50;99.90;;;;;;5020745;28;19982;-91
2022/01/05 11:12:33;;;;;;;;;;;6.10;99.90;;;;;;5024970;28;19971;-89
2022/01/05 11:15:21;;;;;;;;;;;5.70;99.90;;;;;;5018705;28;19949;-89
2022/01/05 11:18:08;;;;;;;;;;;5.50;99.90;;;;;;5026871;28;20326;-90
2022/01/05 11:20:36;;;;;;;;;;;5.60;99.90;;;;;;5033179;28;19925;-88
2022/01/05 11:23:03;;;;;;;;;;;5.60;99.90;;;;;;5025056;28;19927;-87
2022/01/05 11:25:30;;;;;;;;;;;5.90;99.90;;;;;;5025659;28;19929;-88
2022/01/05 11:27:57;;;;;;;;;;;5.70;99.90;;;;;;5026341;28;19921;-88
2022/01/05 11:30:25;;;;;;;;;;;5.80;99.90;;;;;;5019201;28;19929;-88
2022/01/05 11:32:52;;;;;;;;;;;5.70;99.90;;;;;;5030543;28;19952;-88
2022/01/05 11:35:19;;;;;;;;;;;5.80;99.90;;;;;;5028354;28;19926;-88
2022/01/05 11:37:46;;;;;;;;;;;5.80;99.90;;;;;;5026562;28;19955;-88
2022/01/05 11:40:14;;;;;;;;;;;5.90;99.90;;;;;;5018567;28;19971;-89
2022/01/05 11:42:41;;;;;;;;;;;5.80;99.90;;;;;;5031927;28;19928;-88
2022/01/05 11:45:09;;;;;;;;;;;5.60;99.90;;;;;;5027152;28;19988;-88
2022/01/05 11:47:38;;;;;;;;;;;5.80;99.90;;;;;;5031281;28;20444;-89
2022/01/05 11:50:24;;;;;;;;;;;5.80;99.90;;;;;;5030577;28;19932;-89
2022/01/05 11:52:58;;;;;;;;;;;5.80;99.90;;;;;;5029496;28;19936;-88
2022/01/05 11:55:25;;;;;;;;;;;5.90;99.90;;;;;;5020504;28;19922;-90
2022/01/05 11:58:14;;;;;;;;;;;7.30;99.90;;;;;;5022056;28;19982;-89
2022/01/05 12:00:44;;;;;;;;;;;4.70;99.90;;;;;;5019789;28;19925;-88
2022/01/05 12:03:14;;;;;;;;;;;6.00;99.90;;;;;;5026963;28;20331;-88
2022/01/05 12:05:59;;;;;;;;;;;6.10;99.90;;;;;;5029875;28;20283;-90
2022/01/05 12:08:46;;;;;;;;;;;6.20;99.90;;;;;;5038920;28;19963;-90
2022/01/05 12:11:29;;;;;;;;;;;6.40;99.90;;;;;;5030689;28;19964;-89
2022/01/05 12:13:57;;;;;;;;;;;6.00;99.90;;;;;;5037233;28;19925;-89
2022/01/05 12:16:24;;;;;;;;;;;6.30;99.90;;;;;;4994702;28;19932;-91
2022/01/05 12:19:05;;;;;;;;;;;6.20;99.90;;;;;;4969748;28;20636;-92
2022/01/05 12:21:42;;;;;;;;;;;4.40;99.90;;;;;;4979471;28;19925;-90
2022/01/05 12:24:09;;;;;;;;;;;6.00;99.90;;;;;;5036044;28;20007;-90
2022/01/05 12:26:36;;;;;;;;;;;6.20;99.90;;;;;;5042240;28;20445;-89
2022/01/05 12:29:08;;;;;;;;;;;6.10;99.90;;;;;;5033346;28;19921;-89
2022/01/05 12:31:52;;;;;;;;;;;6.30;99.90;;;;;;5037132;28;20021;-91
2022/01/05 12:34:34;;;;;;;;;;;6.10;99.90;;;;;;5040733;28;19921;-87
2022/01/05 12:37:05;;;;;;;;;;;7.60;99.90;;;;;;5022838;28;19921;-87
2022/01/05 12:39:46;;;;;;;;;;;6.20;99.90;;;;;;5027914;28;20027;-90
2022/01/05 12:42:23;;;;;;;;;;;6.70;99.90;;;;;;5029895;28;19921;-88
2022/01/05 12:44:53;;;;;;;;;;;6.30;99.90;;;;;;5029037;28;19967;-90
2022/01/05 12:47:35;;;;;;;;;;;6.20;99.90;;;;;;5029781;28;19921;-90
2022/01/05 12:50:16;;;;;;;;;;;6.20;99.90;;;;;;5030854;28;19972;-86
2022/01/05 12:52:45;;;;;;;;;;;6.10;99.90;;;;;;5031887;28;19987;-91
2022/01/05 12:55:12;;;;;;;;;;;6.20;99.90;;;;;;5036748;28;19921;-90
2022/01/05 12:57:39;;;;;;;;;;;6.50;99.90;;;;;;5033629;28;19929;-90
2022/01/05 13:00:07;;;;;;;;;;;7.30;99.90;;;;;;5036661;28;19921;-89
2022/01/05 13:02:41;;;;;;;;;;;6.20;99.90;;;;;;5026874;28;19927;-84
2022/01/05 13:05:09;;;;;;;;;;;6.20;99.90;;;;;;5033126;28;20000;-88
2022/01/05 13:07:41;;;;;;;;;;;6.50;99.90;;;;;;4985456;28;19928;-87
2022/01/05 13:10:13;;;;;;;;;;;6.60;99.90;;;;;;4972145;28;19929;-89
2022/01/05 13:12:40;;;;;;;;;;;6.20;99.90;;;;;;4976153;28;20803;-87
2022/01/05 13:15:09;;;;;;;;;;;6.00;99.90;;;;;;4979818;28;19925;-88
2022/01/05 13:17:37;;;;;;;;;;;6.20;99.90;;;;;;4995950;28;20015;-91
2022/01/05 13:20:18;;;;;;;;;;;4.50;99.90;;;;;;4977872;28;19921;-89
2022/01/05 13:22:49;;;;;;;;;;;4.40;99.90;;;;;;4975832;28;19947;-91
2022/01/05 13:25:22;;;;;;;;;;;6.30;99.90;;;;;;4994392;28;19947;-89
2022/01/05 13:27:49;;;;;;;;;;;6.80;99.90;;;;;;5029620;28;20579;-89
2022/01/05 13:30:18;;;;;;;;;;;6.60;99.90;;;;;;5031048;28;19924;-89
2022/01/05 13:32:47;;;;;;;;;;;7.40;99.90;;;;;;5014129;28;19921;-87
2022/01/05 13:35:18;;;;;;;;;;;5.10;99.90;;;;;;5030719;28;19964;-88
2022/01/05 13:37:47;;;;;;;;;;;6.40;99.90;;;;;;5036446;28;19921;-88
2022/01/05 13:40:18;;;;;;;;;;;6.60;99.90;;;;;;5030854;28;19925;-90
2022/01/05 13:42:49;;;;;;;;;;;6.30;99.90;;;;;;5015117;28;20021;-90
2022/01/05 13:45:18;;;;;;;;;;;6.10;99.90;;;;;;5014499;28;20238;-87
2022/01/05 13:47:56;;;;;;;;;;;6.50;99.90;;;;;;4964300;28;20579;-89
2022/01/05 13:50:24;;;;;;;;;;;6.20;99.90;;;;;;4956895;28;19948;-89
2022/01/05 13:52:59;;;;;;;;;;;6.80;99.90;;;;;;4960278;28;19929;-90
2022/01/05 13:55:33;;;;;;;;;;;6.90;99.90;;;;;;4969524;28;20466;-87
2022/01/05 13:58:20;;;;;;;;;;;6.10;99.90;;;;;;4973619;28;19921;-89
2022/01/05 14:01:03;;;;;;;;;;;6.60;99.90;;;;;;4962655;28;21657;-87
2022/01/05 14:03:36;;;;;;;;;;;4.70;99.90;;;;;;4973534;28;19972;-89
2022/01/05 14:06:05;;;;;;;;;;;6.20;99.90;;;;;;4970579;28;19921;-89
2022/01/05 14:08:34;;;;;;;;;;;6.20;99.90;;;;;;4964601;28;19935;-89
2022/01/05 14:11:13;;;;;;;;;;;6.80;99.90;;;;;;4964013;28;19925;-88
2022/01/05 14:13:46;;;;;;;;;;;6.30;99.90;;;;;;4957472;28;19925;-88
2022/01/05 14:16:27;;;;;;;;;;;6.10;99.90;;;;;;4952841;28;20016;-87
2022/01/05 14:18:58;;;;;;;;;;;6.30;99.90;;;;;;4964434;28;20351;-88
2022/01/05 14:21:27;;;;;;;;;;;4.40;99.90;;;;;;4957984;28;19928;-88
2022/01/05 14:23:54;;;;;;;;;;;6.10;99.90;;;;;;4966885;28;20069;-86
2022/01/05 14:26:26;;;;;;;;;;;5.20;99.90;;;;;;4956277;28;19944;-87
2022/01/05 14:28:55;;;;;;;;;;;5.90;99.90;;;;;;4957448;28;19932;-88
2022/01/05 14:31:24;;;;;;;;;;;6.10;99.90;;;;;;4961346;28;19968;-88
2022/01/05 14:33:52;;;;;;;;;;;4.30;99.90;;;;;;4957164;28;19928;-87
2022/01/05 14:36:21;;;;;;;;;;;6.10;99.90;;;;;;4963726;28;19921;-87
2022/01/05 14:39:01;;;;;;;;;;;6.20;99.90;;;;;;4960585;28;19921;-90
2022/01/05 14:41:36;;;;;;;;;;;7.20;99.90;;;;;;4961689;28;20047;-90
2022/01/05 14:44:04;;;;;;;;;;;6.00;99.90;;;;;;4964517;28;20025;-89
2022/01/05 14:46:36;;;;;;;;;;;6.20;99.90;;;;;;4961519;28;19925;-88
2022/01/05 14:49:04;;;;;;;;;;;6.30;99.90;;;;;;4964428;28;20549;-89
2022/01/05 14:51:32;;;;;;;;;;;6.80;99.90;;;;;;4956933;28;19921;-88